CheckWX is a tool to help pilots better visualize weather data.  It is not intended as a substitute for an official pre-flight weather briefing.

07:14:24 UTC

KVPZ METAR
Porter County Regional Airport
Valparaiso, Indiana, USA
Current

1 hour ago

KVPZ 310556Z AUTO 03007KT 10SM OVC055 03/M01 A3011 RMK AO2 SLP201 T00281006 10044 20028 401000028 58015
Observed
Mar-31 @ 05:56 UTC
Wind
  • 030° at 7 KTS
Visibility
10 SM
Flight Rules
VFR
Cloud Levels
  • Overcast at 5,500' AGL
Temperature
C / 37°F
Dewpoint
-1°C / 30°F
Humidity
75%
Altimeter
30.11" Hg
Pressure
1019.62 hPa
Previous

2 hours ago

KVPZ 310456Z AUTO 03005KT 10SM OVC050 03/00 A3013 RMK AO2 SLP209 T00330000
Observed
Mar-31 @ 04:56 UTC
Wind
  • 030° at 5 KTS
Visibility
10 SM
Flight Rules
VFR
Cloud Levels
  • Overcast at 5,000' AGL
Temperature
C / 37°F
Dewpoint
C / 32°F
Humidity
81%
Altimeter
30.13" Hg
Pressure
1020.32 hPa
Previous

3 hours ago

KVPZ 310356Z AUTO 03003KT 10SM OVC050 04/01 A3014 RMK AO2 SLP211 T00390006
Observed
Mar-31 @ 03:56 UTC
Wind
  • 030° at 3 KTS
Visibility
10 SM
Flight Rules
VFR
Cloud Levels
  • Overcast at 5,000' AGL
Temperature
C / 39°F
Dewpoint
C / 34°F
Humidity
81%
Altimeter
30.14" Hg
Pressure
1020.62 hPa